Time;durP1;ratioP1;P1;durP2;ratioP2;P2;SDS_P1;SDS_P2;PMS_P1;PMS_P2;Temp;Humidity;BMP_temperature;BMP_pressure;BME280_temperature;BME280_humidity;BME280_pressure;Samples;Min_cycle;Max_cycle;Signal;HPM_P1;HPM_P2
2022/03/11 00:02:26;;;;;;;7.40;5.70;;;10.50;43.20;;;;;;6058809;23;20478;-80
2022/03/11 00:04:52;;;;;;;7.80;6.57;;;10.60;42.90;;;;;;6064920;23;20398;-78
2022/03/11 00:07:19;;;;;;;8.57;6.03;;;10.50;42.90;;;;;;6038587;23;20394;-78
2022/03/11 00:09:47;;;;;;;9.70;7.03;;;10.60;42.90;;;;;;6034062;23;20414;-78
2022/03/11 00:12:13;;;;;;;7.73;6.10;;;10.60;42.80;;;;;;6054168;23;20454;-79
2022/03/11 00:14:40;;;;;;;9.50;7.23;;;10.60;42.70;;;;;;6052211;23;20442;-81
2022/03/11 00:17:07;;;;;;;7.83;7.00;;;10.60;42.70;;;;;;6047995;23;20462;-80
2022/03/11 00:19:34;;;;;;;8.60;5.87;;;10.50;42.60;;;;;;6046940;23;20441;-81
2022/03/11 00:22:01;;;;;;;7.13;6.00;;;10.60;42.50;;;;;;6045328;23;20417;-81
2022/03/11 00:24:57;;;;;;;7.33;5.30;;;10.50;43.00;;;;;;6045999;23;20458;-84
2022/03/11 00:27:59;;;;;;;7.63;6.30;;;10.50;42.60;;;;;;6026077;23;20414;-87
2022/03/11 00:30:31;;;;;;;6.87;5.03;;;10.50;42.50;;;;;;6020802;23;20501;-87
2022/03/11 00:33:33;;;;;;;8.00;6.40;;;10.50;42.40;;;;;;6012396;23;20839;-85
2022/03/11 00:36:32;;;;;;;7.90;6.10;;;10.40;42.50;;;;;;6036891;23;20939;-83
2022/03/11 00:39:43;;;;;;;9.53;5.70;;;10.50;42.50;;;;;;6045636;23;20401;-85
2022/03/11 00:42:27;;;;;;;6.90;5.40;;;10.40;42.40;;;;;;6010328;23;20407;-85
2022/03/11 00:46:08;;;;;;;7.70;5.00;;;10.50;42.50;;;;;;6029214;23;20413;-85
2022/03/11 00:48:59;;;;;;;6.53;5.93;;;10.50;42.50;;;;;;5938313;24;20447;-85
2022/03/11 00:52:00;;;;;;;7.37;5.10;;;10.50;42.50;;;;;;5992231;23;20426;-86
2022/03/11 00:54:38;;;;;;;9.23;4.73;;;10.50;42.30;;;;;;6056442;23;20485;-85
2022/03/11 00:57:52;;;;;;;6.30;5.40;;;10.40;42.30;;;;;;6023195;23;20466;-85
2022/03/11 01:00:29;;;;;;;5.93;5.10;;;10.40;42.40;;;;;;6046941;23;20444;-85
2022/03/11 01:03:06;;;;;;;7.87;5.67;;;10.40;42.50;;;;;;6044256;23;20496;-84
2022/03/11 01:05:45;;;;;;;6.33;4.93;;;10.40;42.60;;;;;;6022990;23;20422;-84
2022/03/11 01:08:25;;;;;;;8.43;6.00;;;10.30;42.50;;;;;;6018357;23;20426;-85
2022/03/11 01:11:51;;;;;;;7.20;5.13;;;10.20;42.60;;;;;;6022365;23;20927;-86
2022/03/11 01:14:35;;;;;;;8.77;5.63;;;10.20;42.60;;;;;;6015969;23;20446;-84
2022/03/11 01:17:17;;;;;;;6.30;4.83;;;10.20;42.80;;;;;;6002194;23;20419;-85
2022/03/11 01:20:11;;;;;;;9.30;7.00;;;10.20;42.90;;;;;;6018713;23;20510;-84
2022/03/11 01:23:10;;;;;;;6.87;5.23;;;10.20;43.10;;;;;;6020605;23;20470;-84
2022/03/11 01:25:58;;;;;;;7.37;5.20;;;10.20;43.10;;;;;;6018421;23;20427;-85
2022/03/11 01:29:27;;;;;;;5.33;4.63;;;10.10;43.10;;;;;;6019544;23;20429;-85
2022/03/11 01:35:18;;;;;;;7.17;4.73;;;10.00;43.70;;;;;;6026325;23;20513;-84
2022/03/11 01:38:11;;;;;;;7.00;5.00;;;9.90;45.00;;;;;;6017983;23;20410;-85
2022/03/11 01:41:09;;;;;;;12.63;5.90;;;9.90;45.00;;;;;;6040892;23;20481;-86
2022/03/11 01:43:59;;;;;;;7.20;5.97;;;9.80;45.10;;;;;;6010652;23;20517;-85
2022/03/11 01:47:00;;;;;;;7.67;5.50;;;9.80;45.40;;;;;;6012626;23;20948;-85
2022/03/11 01:49:58;;;;;;;8.13;6.20;;;9.80;45.50;;;;;;6024569;23;20418;-86
2022/03/11 01:53:05;;;;;;;7.20;5.37;;;9.70;45.70;;;;;;5931626;24;20405;-85
2022/03/11 01:56:07;;;;;;;5.77;4.80;;;9.70;45.70;;;;;;5913644;24;20492;-85
2022/03/11 01:59:21;;;;;;;;;;;;;;;;;;;;;
2022/03/11 02:02:42;;;;;;;6.10;5.40;;;9.60;46.30;;;;;;5938343;24;20727;-85
2022/03/11 02:05:26;;;;;;;8.83;5.90;;;9.70;46.50;;;;;;5902022;24;20419;-85
2022/03/11 02:08:08;;;;;;;7.30;5.47;;;9.70;46.40;;;;;;5907608;24;20413;-85
2022/03/11 02:10:58;;;;;;;8.13;6.67;;;9.70;46.50;;;;;;5895702;24;20391;-85
2022/03/11 02:14:25;;;;;;;9.83;7.37;;;9.60;46.70;;;;;;5907370;24;20979;-86
2022/03/11 02:17:09;;;;;;;7.43;5.40;;;9.60;46.90;;;;;;5910915;24;20490;-86
2022/03/11 02:19:47;;;;;;;10.80;7.17;;;9.50;47.00;;;;;;5929213;24;20418;-85
2022/03/11 02:22:38;;;;;;;8.53;6.33;;;9.40;47.10;;;;;;5930056;24;20532;-85
2022/03/11 02:25:37;;;;;;;7.30;6.00;;;9.50;47.50;;;;;;5910081;24;20445;-85
2022/03/11 02:28:51;;;;;;;7.97;6.17;;;9.50;47.70;;;;;;5908542;23;20422;-86
2022/03/11 02:32:17;;;;;;;10.60;7.27;;;9.50;47.70;;;;;;5838669;24;20406;-86
2022/03/11 02:35:14;;;;;;;12.13;6.63;;;9.50;48.00;;;;;;5828411;24;20468;-86
2022/03/11 02:42:16;;;;;;;8.20;6.57;;;9.40;48.10;;;;;;5728644;24;20407;-85
2022/03/11 02:45:04;;;;;;;7.73;6.00;;;9.40;48.50;;;;;;5768318;24;20515;-86
2022/03/11 02:48:34;;;;;;;;;;;;;;;;;;;;;
2022/03/11 02:51:41;;;;;;;9.17;6.87;;;9.40;48.60;;;;;;5723632;25;20441;-84
2022/03/11 02:54:41;;;;;;;9.47;6.07;;;9.30;48.80;;;;;;5915229;23;20472;-85
2022/03/11 02:57:29;;;;;;;8.70;6.03;;;9.30;48.90;;;;;;6048947;23;20446;-85
2022/03/11 03:01:08;;;;;;;8.20;6.67;;;9.40;48.90;;;;;;6033017;23;20414;-83
2022/03/11 03:03:48;;;;;;;6.83;5.63;;;9.30;49.10;;;;;;6027297;23;20426;-85
2022/03/11 03:06:57;;;;;;;11.80;7.23;;;9.20;49.20;;;;;;6028695;23;20453;-85
2022/03/11 03:10:06;;;;;;;9.30;6.50;;;9.20;49.30;;;;;;5985847;23;20794;-86
2022/03/11 03:13:37;;;;;;;7.43;6.43;;;9.20;49.60;;;;;;6026620;23;20398;-84
2022/03/11 03:20:22;;;;;;;10.20;6.23;;;9.20;49.60;;;;;;5944051;24;20426;-84
2022/03/11 03:23:33;;;;;;;9.43;7.17;;;9.10;49.60;;;;;;5944893;24;20432;-86
2022/03/11 03:26:47;;;;;;;10.40;6.63;;;9.10;49.70;;;;;;6035875;23;20363;-84
2022/03/11 03:30:22;;;;;;;;;;;;;;;;;;;;;
2022/03/11 03:33:47;;;;;;;9.87;7.07;;;9.10;50.00;;;;;;5956586;24;20487;-86
2022/03/11 03:36:55;;;;;;;9.40;6.57;;;9.10;50.20;;;;;;5938301;24;20422;-85
2022/03/11 03:39:31;;;;;;;7.90;7.10;;;8.90;50.40;;;;;;5921344;24;20425;-85
2022/03/11 03:42:22;;;;;;;9.50;7.27;;;8.90;50.50;;;;;;5934162;24;20436;-87
2022/03/11 03:45:39;;;;;;;8.60;6.90;;;8.90;50.60;;;;;;5933534;24;20797;-85
2022/03/11 03:52:17;;;;;;;13.60;8.83;;;9.00;50.40;;;;;;5901610;24;20597;-85
2022/03/11 03:55:06;;;;;;;12.80;7.97;;;8.80;50.70;;;;;;5888546;24;21175;-86
2022/03/11 03:58:12;;;;;;;10.43;7.10;;;8.70;50.90;;;;;;5863307;24;20966;-85
2022/03/11 04:05:23;;;;;;;10.97;7.13;;;8.90;51.30;;;;;;5827550;24;20428;-86
2022/03/11 04:11:14;;;;;;;10.47;7.40;;;8.70;51.50;;;;;;5848549;24;20417;-85
2022/03/11 04:14:39;;;;;;;11.73;8.20;;;8.70;51.70;;;;;;5885775;24;20890;-84
2022/03/11 04:17:37;;;;;;;7.77;5.33;;;8.60;51.80;;;;;;5840165;24;20410;-85
2022/03/11 04:39:00;;;;;;;8.80;7.30;;;8.20;53.10;;;;;;5831269;24;20939;-84
2022/03/11 04:42:25;;;;;;;;;;;;;;;;;;;;;
2022/03/11 04:53:15;;;;;;;9.47;7.90;;;8.20;53.00;;;;;;5903573;24;20420;-84
2022/03/11 04:56:33;;;;;;;;;;;;;;;;;;;;;
2022/03/11 04:59:54;;;;;;;12.17;9.07;;;8.20;53.90;;;;;;5908139;24;20571;-82
2022/03/11 05:03:21;;;;;;;;;;;;;;;;;;;;;
2022/03/11 05:09:48;;;;;;;14.00;9.83;;;8.10;53.80;;;;;;5877656;24;20408;-86
2022/03/11 05:12:54;;;;;;;12.13;9.20;;;8.20;53.50;;;;;;5778178;24;20445;-81
2022/03/11 05:17:35;;;;;;;;;;;;;;;;;;;;;
2022/03/11 05:20:38;;;;;;;14.30;9.93;;;8.00;53.80;;;;;;5747661;24;20508;-84
2022/03/11 05:27:31;;;;;;;11.13;8.50;;;8.00;54.30;;;;;;5742450;25;20479;-85
2022/03/11 06:39:58;;;;;;;12.20;10.10;;;7.40;57.20;;;;;;5800684;24;20478;-85
2022/03/11 06:51:08;;;;;;;16.87;12.53;;;7.30;57.00;;;;;;5722659;25;20568;-84
2022/03/11 07:46:44;;;;;;;16.77;13.87;;;13.00;43.40;;;;;;6044606;23;20809;-85
2022/03/11 07:52:58;;;;;;;19.37;14.17;;;15.60;40.50;;;;;;5913183;24;20430;-86
2022/03/11 07:56:16;;;;;;;16.30;13.60;;;16.80;38.50;;;;;;5910669;24;20461;-86
2022/03/11 08:00:13;;;;;;;16.33;12.30;;;16.70;37.30;;;;;;5896048;24;20398;-86
2022/03/11 08:03:28;;;;;;;14.57;10.67;;;15.90;37.10;;;;;;5805333;24;20960;-85
2022/03/11 08:06:17;;;;;;;15.37;12.80;;;13.70;39.10;;;;;;5807250;24;20433;-86
2022/03/11 08:08:58;;;;;;;18.20;13.90;;;11.60;42.40;;;;;;5932105;24;20428;-84
2022/03/11 08:11:47;;;;;;;17.37;13.83;;;11.00;44.60;;;;;;5938262;24;20476;-86
2022/03/11 08:14:57;;;;;;;19.73;15.00;;;10.30;46.00;;;;;;6007429;23;20975;-84
2022/03/11 08:17:43;;;;;;;18.00;14.33;;;9.70;47.50;;;;;;6009737;23;20427;-84
2022/03/11 08:20:30;;;;;;;16.87;12.40;;;9.60;48.60;;;;;;5987830;23;20419;-84
2022/03/11 08:23:35;;;;;;;17.83;12.77;;;9.50;49.80;;;;;;6000872;23;20420;-86
2022/03/11 08:26:47;;;;;;;14.63;12.10;;;9.60;48.90;;;;;;5906055;24;20513;-86
2022/03/11 08:30:05;;;;;;;16.70;12.87;;;9.20;49.20;;;;;;5935729;23;20438;-85
2022/03/11 08:33:05;;;;;;;17.30;11.90;;;9.20;50.00;;;;;;5990477;23;20415;-84
2022/03/11 08:36:19;;;;;;;19.50;13.83;;;9.20;49.70;;;;;;5994234;23;20741;-84
2022/03/11 08:39:22;;;;;;;15.27;12.33;;;8.90;50.50;;;;;;5994445;23;20713;-86
2022/03/11 08:42:03;;;;;;;21.23;13.40;;;9.40;50.70;;;;;;5975779;23;20467;-86
2022/03/11 08:45:32;;;;;;;;;;;;;;;;;;;;;
2022/03/11 08:48:10;;;;;;;15.93;11.57;;;9.70;49.70;;;;;;6014085;23;20918;-86
2022/03/11 08:51:01;;;;;;;14.40;11.27;;;9.30;49.50;;;;;;5992986;23;20411;-84
2022/03/11 08:53:39;;;;;;;17.80;13.40;;;9.30;49.90;;;;;;6013759;23;20422;-84
2022/03/11 09:00:32;;;;;;;17.57;13.00;;;9.40;49.70;;;;;;6015608;23;20416;-84
2022/03/11 09:06:33;;;;;;;16.53;11.97;;;9.50;49.90;;;;;;5988805;23;20454;-85
2022/03/11 09:09:48;;;;;;;;;;;;;;;;;;;;;
2022/03/11 09:12:37;;;;;;;17.57;13.30;;;9.50;49.70;;;;;;5999478;23;20387;-87
2022/03/11 09:15:25;;;;;;;15.37;12.03;;;9.50;49.50;;;;;;5987095;23;20481;-85
2022/03/11 09:17:54;;;;;;;19.83;12.40;;;9.70;49.30;;;;;;5986202;23;20530;-85
2022/03/11 09:20:29;;;;;;;14.57;12.13;;;9.70;49.40;;;;;;5989387;23;20451;-86
2022/03/11 09:23:07;;;;;;;18.67;12.60;;;9.60;49.60;;;;;;5987983;23;20423;-85
2022/03/11 09:25:44;;;;;;;15.67;12.80;;;9.70;49.50;;;;;;5987090;23;20445;-85
2022/03/11 09:28:14;;;;;;;16.33;11.00;;;9.80;49.40;;;;;;5986418;23;20498;-85
2022/03/11 09:30:58;;;;;;;13.67;10.20;;;10.00;48.20;;;;;;5987069;23;20475;-84
2022/03/11 09:33:54;;;;;;;;;;;;;;;;;;;;;
2022/03/11 09:37:13;;;;;;;17.03;12.07;;;9.80;48.60;;;;;;6002789;23;20427;-87
2022/03/11 09:40:19;;;;;;;15.47;11.40;;;9.90;48.90;;;;;;5989332;23;20450;-84
2022/03/11 09:43:37;;;;;;;16.70;11.60;;;10.00;47.70;;;;;;6008487;23;20451;-84
2022/03/11 09:46:57;;;;;;;18.57;11.10;;;10.00;47.70;;;;;;5944663;24;20781;-86
2022/03/11 09:50:22;;;;;;;14.53;10.30;;;10.00;47.50;;;;;;5907710;24;21108;-85
2022/03/11 09:53:38;;;;;;;16.47;11.20;;;10.00;47.30;;;;;;5935586;24;20410;-88
2022/03/11 09:56:21;;;;;;;14.80;10.60;;;10.30;47.50;;;;;;5937941;24;20454;-87
2022/03/11 10:06:56;;;;;;;14.93;11.20;;;13.90;42.30;;;;;;5914608;24;20548;-84
2022/03/11 10:09:45;;;;;;;15.53;12.83;;;14.00;40.80;;;;;;5836190;24;20501;-85
2022/03/11 10:16:41;;;;;;;15.17;12.57;;;14.50;38.90;;;;;;5917977;24;20461;-84
2022/03/11 10:20:04;;;;;;;15.83;13.50;;;14.70;38.30;;;;;;5887817;24;20422;-84
2022/03/11 10:22:45;;;;;;;14.87;12.80;;;13.70;39.90;;;;;;5931549;23;20456;-85
2022/03/11 10:26:58;;;;;;;18.50;13.63;;;14.90;39.30;;;;;;6014654;23;20467;-85
2022/03/11 10:30:19;;;;;;;13.53;9.97;;;14.20;38.10;;;;;;5992181;23;20423;-86
2022/03/11 10:33:14;;;;;;;12.80;10.97;;;15.10;38.80;;;;;;6010184;23;20419;-86
2022/03/11 10:36:16;;;;;;;17.23;12.10;;;14.90;37.90;;;;;;6015473;23;20738;-84
2022/03/11 10:43:25;;;;;;;20.00;13.70;;;13.20;40.20;;;;;;6013428;23;20471;-85
2022/03/11 10:46:25;;;;;;;19.10;13.30;;;12.60;41.30;;;;;;5997518;23;20415;-85
2022/03/11 10:48:56;;;;;;;15.87;10.50;;;12.30;42.00;;;;;;5991401;23;20417;-87
2022/03/11 10:52:34;;;;;;;15.53;10.97;;;12.10;42.00;;;;;;5988557;23;20483;-84
2022/03/11 10:56:15;;;;;;;17.20;10.57;;;11.90;42.90;;;;;;5957779;23;20479;-85
2022/03/11 10:59:44;;;;;;;13.10;10.67;;;11.80;42.70;;;;;;5989517;23;20470;-88
2022/03/11 11:06:18;;;;;;;13.87;11.27;;;11.90;42.90;;;;;;6010330;23;20431;-84
2022/03/11 11:09:22;;;;;;;15.37;12.40;;;12.00;43.20;;;;;;5986057;23;20399;-86
2022/03/11 11:12:34;;;;;;;12.97;11.57;;;12.00;43.20;;;;;;6000809;23;20433;-85
2022/03/11 11:19:43;;;;;;;;;;;;;;;;;;;;;
2022/03/11 11:23:39;;;;;;;15.30;11.57;;;12.70;41.70;;;;;;6013893;23;20411;-85
2022/03/11 11:26:35;;;;;;;16.27;11.43;;;12.50;41.90;;;;;;6012757;23;20450;-85
2022/03/11 11:29:41;;;;;;;12.97;10.27;;;12.30;42.50;;;;;;5998022;23;20392;-86
2022/03/11 11:32:59;;;;;;;;;;;;;;;;;;;;;
2022/03/11 11:36:00;;;;;;;15.50;12.10;;;12.50;42.40;;;;;;6016433;23;20544;-85
2022/03/11 11:39:24;;;;;;;15.30;11.40;;;12.70;42.30;;;;;;6045245;23;20485;-85
2022/03/11 11:42:17;;;;;;;12.00;8.90;;;13.20;42.30;;;;;;6021767;23;20423;-85
2022/03/11 11:45:43;;;;;;;14.80;11.83;;;13.20;41.30;;;;;;6046500;23;20999;-84
2022/03/11 11:48:48;;;;;;;13.70;11.30;;;12.90;41.80;;;;;;5992953;23;20467;-84
2022/03/11 11:52:36;;;;;;;17.97;11.77;;;13.00;41.80;;;;;;6017055;23;20903;-86
2022/03/11 11:55:58;;;;;;;;;;;;;;;;;;;;;
2022/03/11 11:59:01;;;;;;;14.60;12.37;;;13.30;41.90;;;;;;6009543;23;20411;-84
2022/03/11 12:02:09;;;;;;;14.47;12.67;;;13.40;41.60;;;;;;5991125;23;20391;-85
2022/03/11 12:05:59;;;;;;;14.23;11.30;;;13.60;40.90;;;;;;6013175;23;20408;-83
2022/03/11 12:09:06;;;;;;;16.97;12.43;;;13.80;40.60;;;;;;5904148;24;20395;-83
2022/03/11 12:11:56;;;;;;;15.70;11.60;;;14.00;40.60;;;;;;5853518;24;20472;-82
2022/03/11 12:15:00;;;;;;;17.97;11.83;;;13.90;40.20;;;;;;5878748;24;20426;-86
2022/03/11 12:18:21;;;;;;;15.23;11.20;;;13.50;40.70;;;;;;5887389;24;20439;-82
2022/03/11 12:21:29;;;;;;;18.90;13.50;;;14.40;40.30;;;;;;5884624;24;20447;-84
2022/03/11 12:24:47;;;;;;;11.47;10.00;;;15.40;39.60;;;;;;5865904;24;20407;-82
2022/03/11 12:28:02;;;;;;;14.10;11.23;;;15.20;38.70;;;;;;5900102;24;20514;-85
2022/03/11 12:34:52;;;;;;;13.23;10.73;;;15.60;37.90;;;;;;5855072;24;20476;-85
2022/03/11 12:37:34;;;;;;;14.67;12.07;;;15.30;38.20;;;;;;5831414;24;20478;-84
2022/03/11 12:40:59;;;;;;;13.93;10.47;;;15.80;38.00;;;;;;5825317;24;20436;-84
2022/03/11 12:47:38;;;;;;;14.50;12.17;;;15.60;38.00;;;;;;5888039;24;20439;-86
2022/03/11 12:50:21;;;;;;;16.27;11.83;;;16.00;37.60;;;;;;5900980;24;20449;-85
2022/03/11 12:56:32;;;;;;;;;;;;;;;;;;;;;
2022/03/11 12:59:53;;;;;;;16.20;12.53;;;15.60;37.40;;;;;;5898486;24;20468;-85
2022/03/11 13:02:52;;;;;;;16.37;13.93;;;16.10;37.80;;;;;;5946455;24;20428;-84
2022/03/11 13:05:42;;;;;;;15.17;13.10;;;16.90;37.10;;;;;;5930726;24;20496;-86
2022/03/11 13:08:38;;;;;;;13.83;12.40;;;16.60;36.70;;;;;;5938130;24;20464;-85
2022/03/11 13:11:16;;;;;;;15.53;12.60;;;16.70;36.90;;;;;;5938285;24;20951;-86
2022/03/11 13:14:06;;;;;;;15.30;11.80;;;16.60;37.20;;;;;;5954520;24;20432;-86
2022/03/11 13:17:01;;;;;;;13.53;11.07;;;16.20;37.40;;;;;;5957441;24;20452;-84
2022/03/11 13:20:10;;;;;;;13.80;12.07;;;16.90;37.10;;;;;;5940458;23;21035;-85
2022/03/11 13:23:10;;;;;;;14.23;12.30;;;16.40;37.10;;;;;;6017586;23;20423;-85
2022/03/11 13:26:00;;;;;;;14.50;12.90;;;16.10;37.60;;;;;;5996545;23;20462;-85
2022/03/11 13:29:03;;;;;;;12.77;11.47;;;15.70;38.00;;;;;;6019282;23;20422;-85
2022/03/11 13:32:04;;;;;;;13.77;11.50;;;16.70;37.60;;;;;;6019267;23;20399;-87
2022/03/11 13:35:38;;;;;;;12.13;10.60;;;16.00;37.80;;;;;;6018711;23;20472;-85
2022/03/11 13:38:46;;;;;;;14.00;11.40;;;16.50;37.80;;;;;;5998822;23;20886;-86
2022/03/11 13:41:32;;;;;;;14.07;11.53;;;16.70;37.50;;;;;;6013398;23;20431;-86
2022/03/11 13:44:23;;;;;;;10.80;9.30;;;16.40;37.30;;;;;;6017504;23;20427;-86
2022/03/11 13:47:06;;;;;;;14.43;12.00;;;16.20;37.60;;;;;;6018784;23;20434;-84
2022/03/11 13:50:12;;;;;;;16.20;11.50;;;16.10;38.00;;;;;;6001521;23;20415;-84
2022/03/11 13:53:06;;;;;;;14.50;11.50;;;16.00;37.80;;;;;;5900691;24;20386;-82
2022/03/11 14:02:46;;;;;;;15.17;12.40;;;16.50;36.90;;;;;;5906253;24;20496;-84
2022/03/11 14:05:55;;;;;;;13.90;11.70;;;16.60;37.10;;;;;;5977395;23;20478;-84
2022/03/11 14:09:06;;;;;;;13.17;11.10;;;16.50;37.00;;;;;;6028085;23;20413;-82
2022/03/11 14:16:09;;;;;;;15.10;11.93;;;15.90;37.00;;;;;;6042541;23;20465;-83
2022/03/11 14:19:06;;;;;;;14.30;11.20;;;15.70;37.40;;;;;;5907043;24;20448;-84
2022/03/11 14:21:56;;;;;;;13.53;11.53;;;15.60;37.80;;;;;;5910277;24;20412;-84
2022/03/11 14:28:28;;;;;;;14.70;12.17;;;15.20;38.00;;;;;;5919273;24;20414;-83
2022/03/11 14:31:03;;;;;;;17.10;12.20;;;15.30;38.30;;;;;;5932610;24;20445;-83
2022/03/11 14:33:31;;;;;;;14.03;11.33;;;15.00;38.10;;;;;;5904672;24;20453;-83
2022/03/11 14:35:59;;;;;;;15.57;11.83;;;15.30;38.30;;;;;;5927597;24;20508;-84
2022/03/11 14:39:12;;;;;;;16.07;11.90;;;15.30;38.00;;;;;;5904683;24;20432;-85
2022/03/11 14:42:32;;;;;;;20.07;13.77;;;15.30;37.90;;;;;;6025597;23;20426;-83
2022/03/11 14:45:28;;;;;;;17.20;13.57;;;15.10;38.10;;;;;;6042159;23;21175;-84
2022/03/11 14:48:48;;;;;;;14.90;12.63;;;15.00;38.20;;;;;;6040495;23;20406;-83
2022/03/11 14:51:28;;;;;;;14.57;11.20;;;15.20;38.30;;;;;;6040677;23;20406;-83
2022/03/11 14:54:15;;;;;;;15.40;12.73;;;15.30;38.00;;;;;;6037875;23;20426;-81
2022/03/11 14:57:07;;;;;;;15.10;13.10;;;15.40;38.20;;;;;;6036163;23;20464;-83
2022/03/11 15:00:08;;;;;;;13.57;11.17;;;15.40;37.50;;;;;;6039822;23;20423;-84
2022/03/11 15:06:18;;;;;;;20.10;11.17;;;15.30;37.70;;;;;;6041921;23;20505;-83
2022/03/11 15:09:42;;;;;;;16.43;11.73;;;15.30;37.70;;;;;;5930942;24;20454;-83
2022/03/11 15:23:41;;;;;;;10.73;9.57;;;15.40;38.00;;;;;;5952091;24;20509;-82
2022/03/11 15:33:59;;;;;;;15.67;11.00;;;15.00;37.90;;;;;;5933358;24;20497;-83
2022/03/11 15:37:30;;;;;;;;;;;;;;;;;;;;;
2022/03/11 15:40:31;;;;;;;14.07;12.07;;;15.60;38.00;;;;;;5991829;23;20469;-81
2022/03/11 15:44:05;;;;;;;14.40;11.80;;;15.50;37.90;;;;;;6032229;23;20406;-83
2022/03/11 15:47:04;;;;;;;15.20;10.53;;;15.60;38.00;;;;;;6031044;23;20414;-81
2022/03/11 15:50:35;;;;;;;13.87;12.00;;;15.40;37.50;;;;;;6037224;23;20418;-83
2022/03/11 15:53:48;;;;;;;;;;;;;;;;;;;;;
2022/03/11 16:00:52;;;;;;;14.20;10.90;;;15.10;38.00;;;;;;5955007;24;20376;-83
2022/03/11 16:03:24;;;;;;;15.60;11.23;;;15.20;38.10;;;;;;6041091;23;20410;-82
2022/03/11 16:06:05;;;;;;;14.50;12.40;;;15.10;38.40;;;;;;6014613;23;20448;-82
2022/03/11 16:08:36;;;;;;;10.77;8.90;;;15.30;38.30;;;;;;6037371;23;21064;-80
2022/03/11 16:11:03;;;;;;;13.33;10.20;;;15.20;38.40;;;;;;6041530;23;20878;-80
2022/03/11 16:13:32;;;;;;;17.17;11.53;;;15.10;38.40;;;;;;6042582;23;20413;-85
2022/03/11 16:15:59;;;;;;;13.80;12.23;;;14.90;38.40;;;;;;6042491;23;20450;-81
2022/03/11 16:18:48;;;;;;;14.53;11.33;;;14.80;38.40;;;;;;6037769;23;20438;-84
2022/03/11 16:21:31;;;;;;;13.33;9.13;;;14.90;38.70;;;;;;5992960;23;20497;-83
2022/03/11 16:24:21;;;;;;;12.03;9.67;;;14.90;38.70;;;;;;6044052;23;20427;-84
2022/03/11 16:27:29;;;;;;;16.30;12.00;;;14.80;39.00;;;;;;6043291;23;20485;-83
2022/03/11 16:30:37;;;;;;;13.97;11.50;;;14.60;39.10;;;;;;6028259;23;20415;-83
2022/03/11 16:34:06;;;;;;;12.50;10.87;;;14.70;39.50;;;;;;6010212;23;20792;-82
2022/03/11 16:37:24;;;;;;;15.57;10.10;;;14.50;39.30;;;;;;6054499;23;20448;-83
2022/03/11 16:40:39;;;;;;;14.37;10.93;;;14.40;39.30;;;;;;6037252;23;20410;-82
2022/03/11 16:44:00;;;;;;;16.03;11.90;;;14.30;39.50;;;;;;5933551;24;20421;-83
2022/03/11 16:47:17;;;;;;;14.53;12.10;;;14.30;39.70;;;;;;5800515;24;20489;-86
2022/03/11 16:50:06;;;;;;;12.40;10.30;;;14.20;39.70;;;;;;5805465;24;20413;-84
2022/03/11 16:52:59;;;;;;;17.33;11.47;;;14.20;40.00;;;;;;5819173;24;20472;-84
2022/03/11 16:56:34;;;;;;;14.93;11.00;;;14.10;40.30;;;;;;5812608;24;20534;-82
2022/03/11 16:59:21;;;;;;;13.90;10.10;;;14.10;40.30;;;;;;5792983;24;20518;-83
2022/03/11 17:02:06;;;;;;;13.20;10.10;;;14.10;40.20;;;;;;5815930;24;20481;-82
2022/03/11 17:04:53;;;;;;;12.50;10.40;;;14.00;40.20;;;;;;5817161;24;20421;-85
2022/03/11 17:07:47;;;;;;;12.80;10.20;;;13.90;40.20;;;;;;5785702;24;20448;-84
2022/03/11 17:10:44;;;;;;;13.60;10.70;;;13.80;40.40;;;;;;5803918;24;20441;-82
2022/03/11 17:23:46;;;;;;;13.20;10.33;;;13.50;40.50;;;;;;6004426;23;20470;-81
2022/03/11 17:27:09;;;;;;;11.70;10.07;;;13.70;40.60;;;;;;6030670;23;21000;-84
2022/03/11 17:30:19;;;;;;;14.40;10.43;;;13.50;40.40;;;;;;5927537;24;20452;-83
2022/03/11 17:33:20;;;;;;;15.30;10.00;;;13.40;40.50;;;;;;5941026;24;20488;-84
2022/03/11 17:36:46;;;;;;;16.00;10.53;;;13.30;40.50;;;;;;5928293;24;20463;-84
2022/03/11 17:39:54;;;;;;;12.10;10.37;;;13.40;40.50;;;;;;5922780;24;20425;-84
2022/03/11 17:46:34;;;;;;;13.83;10.23;;;13.40;40.50;;;;;;5937216;24;20581;-83
2022/03/11 17:50:14;;;;;;;15.17;9.07;;;13.20;40.30;;;;;;5935619;24;20429;-84
2022/03/11 17:56:27;;;;;;;11.47;9.67;;;13.10;41.00;;;;;;5870481;24;20713;-84
2022/03/11 17:59:02;;;;;;;12.50;9.60;;;13.10;40.50;;;;;;5867452;24;20982;-84
2022/03/11 18:05:23;;;;;;;11.97;8.90;;;13.10;40.10;;;;;;5948383;24;20500;-82
2022/03/11 18:08:24;;;;;;;;;;;;;;;;;;;;;
2022/03/11 18:11:18;;;;;;;14.00;9.87;;;12.90;40.00;;;;;;6045017;23;20414;-84
2022/03/11 18:14:15;;;;;;;14.20;10.37;;;13.00;40.30;;;;;;6030555;23;20393;-84
2022/03/11 18:17:35;;;;;;;12.83;9.60;;;12.80;40.10;;;;;;6028152;23;20461;-84
2022/03/11 18:20:46;;;;;;;15.43;9.90;;;13.00;40.40;;;;;;6046520;23;20418;-83
2022/03/11 18:24:09;;;;;;;;;;;;;;;;;;;;;
2022/03/11 18:26:49;;;;;;;13.57;10.13;;;12.90;40.10;;;;;;6053726;23;20438;-84
2022/03/11 18:33:26;;;;;;;13.00;9.97;;;12.80;40.00;;;;;;5983334;23;20412;-83
2022/03/11 18:36:47;;;;;;;;;;;;;;;;;;;;;
2022/03/11 18:39:55;;;;;;;11.07;9.67;;;13.00;40.10;;;;;;5980776;23;20403;-86
2022/03/11 18:49:10;;;;;;;10.20;8.50;;;12.70;40.10;;;;;;6009210;23;20442;-83
2022/03/11 18:52:50;;;;;;;15.03;9.00;;;12.80;40.00;;;;;;5879336;24;20426;-83
2022/03/11 18:56:03;;;;;;;8.83;7.93;;;12.70;40.10;;;;;;5836023;23;20459;-83
2022/03/11 18:58:56;;;;;;;11.43;9.47;;;12.70;40.00;;;;;;6046857;23;20493;-84
2022/03/11 19:01:29;;;;;;;18.10;9.30;;;12.50;40.10;;;;;;6023555;23;20414;-84
2022/03/11 19:04:10;;;;;;;12.67;9.40;;;12.50;40.30;;;;;;6021518;23;20406;-85
2022/03/11 19:06:40;;;;;;;13.93;11.00;;;12.60;40.20;;;;;;6002559;23;21038;-85
2022/03/11 19:09:08;;;;;;;12.10;9.57;;;12.70;40.10;;;;;;5990887;23;20880;-85
2022/03/11 19:11:36;;;;;;;10.77;9.50;;;12.40;40.70;;;;;;5992546;23;20423;-84
2022/03/11 19:14:09;;;;;;;14.60;9.53;;;12.50;40.10;;;;;;6024134;23;20388;-86
2022/03/11 19:16:41;;;;;;;9.90;8.80;;;12.60;39.80;;;;;;6020427;23;20453;-84
2022/03/11 19:19:09;;;;;;;9.70;8.47;;;12.70;39.90;;;;;;6016389;23;20472;-84
2022/03/11 19:21:41;;;;;;;11.77;10.23;;;12.80;39.70;;;;;;5992517;23;20415;-84
2022/03/11 19:24:09;;;;;;;11.70;9.97;;;12.60;39.90;;;;;;5992742;23;20407;-84
2022/03/11 19:26:36;;;;;;;10.27;8.77;;;12.60;40.10;;;;;;6015806;23;20826;-84
2022/03/11 19:29:05;;;;;;;12.00;9.40;;;12.60;40.30;;;;;;5990265;23;20767;-83
2022/03/11 19:31:42;;;;;;;11.83;9.87;;;12.60;40.00;;;;;;5991825;23;20423;-83
2022/03/11 19:34:13;;;;;;;10.93;9.10;;;12.40;39.70;;;;;;6015763;23;20415;-85
2022/03/11 19:36:47;;;;;;;11.13;8.80;;;12.40;39.90;;;;;;5992265;23;20447;-84
2022/03/11 19:39:22;;;;;;;13.83;10.50;;;12.30;40.00;;;;;;5993036;23;20395;-84
2022/03/11 19:41:50;;;;;;;11.87;8.67;;;12.60;39.90;;;;;;5998251;23;20450;-83
2022/03/11 19:44:18;;;;;;;9.73;8.70;;;12.60;39.60;;;;;;6020515;23;20970;-83
2022/03/11 19:46:48;;;;;;;10.03;8.43;;;12.60;39.30;;;;;;6018445;23;20450;-83
2022/03/11 19:49:25;;;;;;;11.80;8.97;;;12.60;39.40;;;;;;6018532;23;20793;-82
2022/03/11 19:52:11;;;;;;;9.50;8.50;;;12.40;39.10;;;;;;5994221;23;20421;-84
2022/03/11 19:54:51;;;;;;;14.83;8.50;;;12.40;39.40;;;;;;6018240;23;20423;-83
2022/03/11 19:57:23;;;;;;;10.33;8.63;;;12.40;40.20;;;;;;5994374;23;20852;-83
2022/03/11 19:59:51;;;;;;;11.50;9.33;;;12.40;39.50;;;;;;5993090;23;20425;-84
2022/03/11 20:02:18;;;;;;;11.53;10.13;;;12.40;39.50;;;;;;5995454;23;20467;-83
2022/03/11 20:04:48;;;;;;;11.73;9.03;;;12.50;39.90;;;;;;6015052;23;20888;-83
2022/03/11 20:07:21;;;;;;;9.53;8.17;;;12.50;39.50;;;;;;6016098;23;20435;-85
2022/03/11 20:09:48;;;;;;;8.90;7.00;;;12.50;39.10;;;;;;6017895;23;20448;-85
2022/03/11 20:12:26;;;;;;;21.37;8.73;;;12.50;38.90;;;;;;5992746;23;20419;-83
2022/03/11 20:14:54;;;;;;;9.07;7.67;;;12.40;38.70;;;;;;5992879;23;20431;-83
2022/03/11 20:17:26;;;;;;;9.80;8.50;;;12.40;38.90;;;;;;5993307;23;20451;-84
2022/03/11 20:20:00;;;;;;;12.50;7.80;;;12.40;38.60;;;;;;6017005;23;20435;-84
2022/03/11 20:22:29;;;;;;;9.70;7.97;;;12.30;38.60;;;;;;5994541;23;20408;-83
2022/03/11 20:24:57;;;;;;;10.00;8.30;;;12.30;38.20;;;;;;5993379;23;20415;-83
2022/03/11 20:27:27;;;;;;;9.97;8.37;;;12.30;38.00;;;;;;5998891;23;20438;-84
2022/03/11 20:29:54;;;;;;;8.57;7.67;;;12.30;38.20;;;;;;6009541;23;20448;-86
2022/03/11 20:32:24;;;;;;;8.63;7.63;;;12.20;38.20;;;;;;6011637;23;20427;-85
2022/03/11 20:34:58;;;;;;;10.70;7.43;;;12.30;37.90;;;;;;6007681;23;20411;-84
2022/03/11 20:37:30;;;;;;;11.00;7.30;;;12.30;37.20;;;;;;6005963;23;20451;-85
2022/03/11 20:40:27;;;;;;;6.70;6.00;;;12.10;37.40;;;;;;6006150;23;20432;-83